createdAt,value
2022-08-14T00:02:31.471Z,16.70
2022-08-14T00:05:00.326Z,16.60
2022-08-14T00:07:30.149Z,16.60
2022-08-14T00:10:49.593Z,16.60
2022-08-14T00:12:56.402Z,16.60
2022-08-14T00:15:37.409Z,16.50
2022-08-14T00:19:05.439Z,16.50
2022-08-14T00:21:04.836Z,16.50
2022-08-14T00:23:41.079Z,16.40
2022-08-14T00:26:21.604Z,16.40
2022-08-14T00:28:51.581Z,16.40
2022-08-14T00:31:20.551Z,16.30
2022-08-14T00:34:37.376Z,16.20
2022-08-14T00:36:52.310Z,16.20
2022-08-14T00:39:23.955Z,16.10
2022-08-14T00:41:54.064Z,16.10
2022-08-14T00:44:32.062Z,16.00
2022-08-14T00:47:03.392Z,16.00
2022-08-14T00:49:37.814Z,16.00
2022-08-14T00:52:07.188Z,15.90
2022-08-14T00:54:38.859Z,15.90
2022-08-14T00:57:08.929Z,15.90
2022-08-14T00:59:37.939Z,15.90
2022-08-14T01:02:09.469Z,15.90
2022-08-14T01:04:53.432Z,15.80
2022-08-14T01:07:24.472Z,15.80
2022-08-14T01:10:01.730Z,15.80
2022-08-14T01:12:31.044Z,15.80
2022-08-14T01:15:02.190Z,15.80
2022-08-14T01:17:49.535Z,15.80
2022-08-14T01:20:40.047Z,15.80
2022-08-14T01:23:16.021Z,15.70
2022-08-14T01:25:51.886Z,15.70
2022-08-14T01:28:46.920Z,15.70
2022-08-14T01:31:15.223Z,15.70
2022-08-14T01:33:59.824Z,15.60
2022-08-14T01:36:37.960Z,15.60
2022-08-14T01:39:12.943Z,15.60
2022-08-14T01:41:43.386Z,15.50
2022-08-14T01:44:32.620Z,15.50
2022-08-14T01:47:21.493Z,15.40
2022-08-14T01:50:01.465Z,15.40
2022-08-14T01:52:59.143Z,15.30
2022-08-14T01:55:32.483Z,15.30
2022-08-14T01:58:18.518Z,15.20
2022-08-14T02:00:48.123Z,15.20
2022-08-14T02:03:16.969Z,15.10
2022-08-14T02:05:45.298Z,15.10
2022-08-14T02:08:13.703Z,15.00
2022-08-14T02:11:06.334Z,15.00
2022-08-14T02:13:35.626Z,15.00
2022-08-14T02:16:21.760Z,14.90
2022-08-14T02:18:52.252Z,14.90
2022-08-14T02:21:23.144Z,14.80
2022-08-14T02:23:54.231Z,14.80
2022-08-14T02:26:29.815Z,14.70
2022-08-14T02:29:08.627Z,14.70
2022-08-14T02:31:44.040Z,14.60
2022-08-14T02:34:21.790Z,14.60
2022-08-14T02:37:03.768Z,14.50
2022-08-14T02:39:39.374Z,14.40
2022-08-14T02:42:13.643Z,14.40
2022-08-14T02:44:49.370Z,14.30
2022-08-14T02:47:20.511Z,14.30
2022-08-14T02:49:56.740Z,14.30
2022-08-14T02:52:56.754Z,14.30
2022-08-14T02:55:20.536Z,14.30
2022-08-14T02:58:03.308Z,14.30
2022-08-14T03:00:39.866Z,14.20
2022-08-14T03:03:09.045Z,14.20
2022-08-14T03:05:41.131Z,14.20
2022-08-14T03:08:15.331Z,14.20
2022-08-14T03:10:48.616Z,14.20
2022-08-14T03:13:21.452Z,14.10
2022-08-14T03:15:55.930Z,14.10
2022-08-14T03:18:31.810Z,14.10
2022-08-14T03:21:07.547Z,14.10
2022-08-14T03:23:38.634Z,14.00
2022-08-14T03:26:12.906Z,14.00
2022-08-14T03:28:51.123Z,14.00
2022-08-14T03:31:22.439Z,14.00
2022-08-14T03:33:54.666Z,14.00
2022-08-14T03:37:39.003Z,14.00
2022-08-14T03:39:22.578Z,13.90
2022-08-14T03:41:55.446Z,13.90
2022-08-14T03:45:19.806Z,13.90
2022-08-14T03:47:15.167Z,13.90
2022-08-14T03:49:49.755Z,13.80
2022-08-14T03:52:38.939Z,13.80
2022-08-14T03:55:09.701Z,13.80
2022-08-14T03:57:38.311Z,13.80
2022-08-14T04:00:40.385Z,13.70
2022-08-14T04:03:02.299Z,13.70
2022-08-14T04:05:42.537Z,13.70
2022-08-14T04:08:29.196Z,13.60
2022-08-14T04:10:58.466Z,13.60
2022-08-14T04:13:27.936Z,13.60
2022-08-14T04:16:04.841Z,13.60
2022-08-14T04:18:34.216Z,13.50
2022-08-14T04:21:04.043Z,13.50
2022-08-14T04:23:33.665Z,13.50
2022-08-14T04:26:03.634Z,13.50
2022-08-14T04:29:08.112Z,13.50
2022-08-14T04:32:58.105Z,13.50
2022-08-14T04:34:20.727Z,13.50
2022-08-14T04:37:10.715Z,13.50
2022-08-14T04:39:57.874Z,13.50
2022-08-14T04:42:47.657Z,13.50
2022-08-14T04:45:23.471Z,13.50
2022-08-14T04:48:12.621Z,13.60
2022-08-14T04:50:45.053Z,13.60
2022-08-14T04:53:23.308Z,13.70
2022-08-14T04:55:54.840Z,13.80
2022-08-14T04:58:32.321Z,13.80
2022-08-14T05:01:13.063Z,13.90
2022-08-14T05:03:49.578Z,14.00
2022-08-14T05:06:37.082Z,14.20
2022-08-14T05:09:13.875Z,14.30
2022-08-14T05:11:44.279Z,14.40
2022-08-14T05:14:16.762Z,14.50
2022-08-14T05:17:02.425Z,14.60
2022-08-14T05:19:33.016Z,14.80
2022-08-14T05:22:17.605Z,15.00
2022-08-14T05:24:50.441Z,15.10
2022-08-14T05:27:23.163Z,15.30
2022-08-14T05:29:55.288Z,15.40
2022-08-14T05:32:27.289Z,15.60
2022-08-14T05:34:59.163Z,15.70
2022-08-14T05:37:30.744Z,15.90
2022-08-14T05:40:02.118Z,16.00
2022-08-14T05:42:31.970Z,16.10
2022-08-14T05:45:01.017Z,16.20
2022-08-14T05:47:34.100Z,16.40
2022-08-14T05:50:17.636Z,16.50
2022-08-14T05:52:52.487Z,16.60
2022-08-14T05:55:22.993Z,16.80
2022-08-14T05:57:57.856Z,17.00
2022-08-14T06:00:36.881Z,17.20
2022-08-14T06:03:11.173Z,17.30
2022-08-14T06:05:40.908Z,17.50
2022-08-14T06:08:31.319Z,17.70
2022-08-14T06:11:07.821Z,17.90
2022-08-14T06:13:40.957Z,18.10
2022-08-14T06:16:17.507Z,18.20
2022-08-14T06:18:52.750Z,18.40
2022-08-14T06:21:23.114Z,18.60
2022-08-14T06:23:51.982Z,18.80
2022-08-14T06:26:22.102Z,18.90
2022-08-14T06:28:52.268Z,19.10
2022-08-14T06:31:22.884Z,19.30
2022-08-14T06:35:10.213Z,19.50
2022-08-14T06:36:41.192Z,19.70
2022-08-14T06:39:10.808Z,19.90
2022-08-14T06:41:58.022Z,20.10
2022-08-14T06:44:32.394Z,20.30
2022-08-14T06:47:06.267Z,20.40
2022-08-14T06:49:45.089Z,20.60
2022-08-14T06:52:18.406Z,20.70
2022-08-14T06:54:48.263Z,20.80
2022-08-14T06:57:21.533Z,20.90
2022-08-14T06:59:50.389Z,21.00
2022-08-14T07:02:37.741Z,21.10
2022-08-14T07:05:29.847Z,21.20
2022-08-14T07:08:00.555Z,21.40
2022-08-14T07:10:29.478Z,21.50
2022-08-14T07:13:03.986Z,21.70
2022-08-14T07:15:39.610Z,21.80
2022-08-14T07:18:09.710Z,22.00
2022-08-14T07:20:38.882Z,22.20
2022-08-14T07:23:21.091Z,22.40
2022-08-14T07:25:53.710Z,22.60
2022-08-14T07:28:26.912Z,22.70
2022-08-14T07:31:04.788Z,22.90
2022-08-14T07:33:42.088Z,23.00
2022-08-14T07:36:26.404Z,23.30
2022-08-14T07:38:57.725Z,23.40
2022-08-14T07:41:33.541Z,23.70
2022-08-14T07:44:29.229Z,23.90
2022-08-14T07:46:51.692Z,24.10
2022-08-14T07:49:20.880Z,24.40
2022-08-14T07:51:52.728Z,24.70
2022-08-14T07:54:23.286Z,25.00
2022-08-14T07:57:00.144Z,25.20
2022-08-14T07:59:42.291Z,25.50
2022-08-14T08:02:18.852Z,25.70
2022-08-14T08:04:55.089Z,26.10
2022-08-14T08:07:30.072Z,26.40
2022-08-14T08:10:46.234Z,26.60
2022-08-14T08:13:15.814Z,26.90
2022-08-14T08:15:46.533Z,27.30
2022-08-14T08:18:27.283Z,27.70
2022-08-14T08:21:00.291Z,28.10
2022-08-14T08:23:39.996Z,28.70
2022-08-14T08:26:10.584Z,29.40
2022-08-14T08:28:43.676Z,30.20
2022-08-14T08:31:13.228Z,30.80
2022-08-14T08:33:43.605Z,31.30
2022-08-14T08:36:18.650Z,31.90
2022-08-14T08:39:14.598Z,32.40
2022-08-14T08:41:45.199Z,32.90
2022-08-14T08:44:31.717Z,33.60
2022-08-14T08:47:06.130Z,34.10
2022-08-14T08:49:48.518Z,34.40
2022-08-14T08:52:31.990Z,35.00
2022-08-14T08:55:04.454Z,35.40
2022-08-14T08:57:37.724Z,35.90
2022-08-14T09:00:24.344Z,36.30
2022-08-14T09:02:59.190Z,36.40
2022-08-14T09:05:28.768Z,36.50
2022-08-14T09:08:31.265Z,36.20
2022-08-14T09:11:00.561Z,36.30
2022-08-14T09:13:33.237Z,36.40
2022-08-14T09:16:19.265Z,36.90
2022-08-14T09:18:48.266Z,37.10
2022-08-14T09:21:18.210Z,37.40
2022-08-14T09:24:26.753Z,38.10
2022-08-14T09:26:36.940Z,38.60
2022-08-14T09:29:07.832Z,39.30
2022-08-14T09:31:52.882Z,39.00
2022-08-14T09:34:35.695Z,38.50
2022-08-14T09:37:25.883Z,38.70
2022-08-14T09:40:08.696Z,38.70
2022-08-14T09:42:51.724Z,38.60
2022-08-14T09:45:25.816Z,39.10
2022-08-14T09:47:58.998Z,39.40
2022-08-14T09:50:31.308Z,39.60
2022-08-14T09:53:04.330Z,38.90
2022-08-14T09:55:41.720Z,39.10
2022-08-14T09:58:20.993Z,39.60
2022-08-14T10:00:57.138Z,39.80
2022-08-14T10:03:33.851Z,40.60
2022-08-14T10:06:08.759Z,41.20
2022-08-14T10:08:50.598Z,41.80
2022-08-14T10:11:23.209Z,41.60
2022-08-14T10:13:55.884Z,41.90
2022-08-14T10:16:32.112Z,42.20
2022-08-14T10:19:10.357Z,42.60
2022-08-14T10:23:13.512Z,42.20
2022-08-14T10:24:37.190Z,42.60
2022-08-14T10:27:18.238Z,41.50
2022-08-14T10:29:50.926Z,41.60
2022-08-14T10:32:28.368Z,41.60
2022-08-14T10:35:13.757Z,41.90
2022-08-14T10:37:48.115Z,42.60
2022-08-14T10:40:37.861Z,42.50
2022-08-14T10:43:23.939Z,41.60
2022-08-14T10:46:58.992Z,41.20
2022-08-14T10:49:02.872Z,41.00
2022-08-14T10:51:39.613Z,40.40
2022-08-14T10:54:17.107Z,40.50
2022-08-14T10:57:01.589Z,41.00
2022-08-14T10:59:45.353Z,42.00
2022-08-14T11:02:44.835Z,43.00
2022-08-14T11:05:23.524Z,43.80
2022-08-14T11:08:00.716Z,44.10
2022-08-14T11:10:43.859Z,44.40
2022-08-14T11:13:18.568Z,44.60
2022-08-14T11:15:48.771Z,44.40
2022-08-14T11:18:20.606Z,44.80
2022-08-14T11:21:01.917Z,44.20
2022-08-14T11:23:38.536Z,43.70
2022-08-14T11:26:10.706Z,43.90
2022-08-14T11:28:48.613Z,44.10
2022-08-14T11:31:24.350Z,43.50
2022-08-14T11:33:57.630Z,43.40
2022-08-14T11:36:57.264Z,43.20
2022-08-14T11:39:33.734Z,43.40
2022-08-14T11:42:57.143Z,43.60
2022-08-14T11:44:59.752Z,44.00
2022-08-14T11:47:35.128Z,43.70
2022-08-14T11:50:33.594Z,43.20
2022-08-14T11:53:09.016Z,43.20
2022-08-14T11:55:39.935Z,43.60
2022-08-14T11:58:12.200Z,43.70
2022-08-14T12:00:55.097Z,43.70
2022-08-14T12:03:30.826Z,42.70
2022-08-14T12:06:27.889Z,42.20
2022-08-14T12:08:59.870Z,42.10
2022-08-14T12:11:43.146Z,42.30
2022-08-14T12:14:30.903Z,41.70
2022-08-14T12:17:12.749Z,42.30
2022-08-14T12:19:51.062Z,42.80
2022-08-14T12:22:29.926Z,43.50
2022-08-14T12:25:00.165Z,43.90
2022-08-14T12:27:52.671Z,43.00
2022-08-14T12:30:37.645Z,42.30
2022-08-14T12:33:10.416Z,42.30
2022-08-14T12:35:42.608Z,42.50
2022-08-14T12:38:19.614Z,41.80
2022-08-14T12:40:52.809Z,41.70
2022-08-14T12:43:25.667Z,41.00
2022-08-14T12:45:55.998Z,41.20
2022-08-14T12:48:31.602Z,41.40
2022-08-14T12:51:00.875Z,42.50
2022-08-14T12:53:38.664Z,43.30
2022-08-14T12:56:21.919Z,43.30
2022-08-14T12:59:01.133Z,42.70
2022-08-14T13:02:00.468Z,42.10
2022-08-14T13:04:22.899Z,41.40
2022-08-14T13:06:52.794Z,41.60
2022-08-14T13:09:35.751Z,41.40
2022-08-14T13:12:33.390Z,40.60
2022-08-14T13:15:00.758Z,41.20
2022-08-14T13:17:38.031Z,42.10
2022-08-14T13:20:10.695Z,42.60
2022-08-14T13:23:03.123Z,42.60
2022-08-14T13:25:31.453Z,42.20
2022-08-14T13:28:11.154Z,42.40
2022-08-14T13:30:41.803Z,41.60
2022-08-14T13:33:17.536Z,41.30
2022-08-14T13:35:47.965Z,40.70
2022-08-14T13:38:23.690Z,40.50
2022-08-14T13:40:59.514Z,40.80
2022-08-14T13:43:31.666Z,40.90
2022-08-14T13:46:05.313Z,41.40
2022-08-14T13:48:36.385Z,42.10
2022-08-14T13:51:10.724Z,42.80
2022-08-14T13:54:06.938Z,42.30
2022-08-14T13:56:40.929Z,41.70
2022-08-14T13:59:12.277Z,41.30
2022-08-14T14:01:51.986Z,40.40
2022-08-14T14:04:20.376Z,40.40
2022-08-14T14:06:52.065Z,40.70
2022-08-14T14:09:37.525Z,40.90
2022-08-14T14:12:36.614Z,40.80
2022-08-14T14:15:10.340Z,40.90
2022-08-14T14:17:41.062Z,40.30
2022-08-14T14:20:35.541Z,40.40
2022-08-14T14:23:11.578Z,40.30
2022-08-14T14:25:51.466Z,40.10
2022-08-14T14:28:32.206Z,39.80
2022-08-14T14:31:06.222Z,39.90
2022-08-14T14:33:46.992Z,39.80
2022-08-14T14:36:21.744Z,39.70
2022-08-14T14:38:56.313Z,39.70
2022-08-14T14:41:26.840Z,39.80
2022-08-14T14:44:09.128Z,39.30
2022-08-14T14:46:41.564Z,38.80
2022-08-14T14:49:14.364Z,38.00
2022-08-14T14:51:46.768Z,37.80
2022-08-14T14:54:31.448Z,37.50
2022-08-14T14:57:09.119Z,37.00
2022-08-14T14:59:38.898Z,36.50
2022-08-14T15:02:10.185Z,36.40
2022-08-14T15:04:43.731Z,36.40
2022-08-14T15:07:13.181Z,35.90
2022-08-14T15:09:44.886Z,35.80
2022-08-14T15:12:55.268Z,35.90
2022-08-14T15:15:09.007Z,35.90
2022-08-14T15:17:41.643Z,35.50
2022-08-14T15:20:17.516Z,35.40
2022-08-14T15:23:00.709Z,35.40
2022-08-14T15:25:31.859Z,35.50
2022-08-14T15:28:00.801Z,35.40
2022-08-14T15:30:32.338Z,35.40
2022-08-14T15:33:02.518Z,35.30
2022-08-14T15:35:34.206Z,34.80
2022-08-14T15:38:08.828Z,34.60
2022-08-14T15:40:41.154Z,34.50
2022-08-14T15:43:12.997Z,34.60
2022-08-14T15:45:42.761Z,34.40
2022-08-14T15:48:22.061Z,34.20
2022-08-14T15:50:51.972Z,33.90
2022-08-14T15:53:22.432Z,33.90
2022-08-14T15:55:53.036Z,33.90
2022-08-14T15:58:21.854Z,33.90
2022-08-14T16:01:31.232Z,33.80
2022-08-14T16:04:07.286Z,33.70
2022-08-14T16:06:35.740Z,33.60
2022-08-14T16:09:11.164Z,33.60
2022-08-14T16:11:47.462Z,33.50
2022-08-14T16:14:22.033Z,33.30
2022-08-14T16:17:00.416Z,33.30
2022-08-14T16:19:32.456Z,33.30
2022-08-14T16:23:00.284Z,33.20
2022-08-14T16:25:04.485Z,33.20
2022-08-14T16:27:39.228Z,33.00
2022-08-14T16:30:20.828Z,32.90
2022-08-14T16:32:55.155Z,32.80
2022-08-14T16:35:42.386Z,32.80
2022-08-14T16:38:44.805Z,32.70
2022-08-14T16:41:25.936Z,32.60
2022-08-14T16:43:59.330Z,32.60
2022-08-14T16:46:32.469Z,32.50
2022-08-14T16:49:02.319Z,32.40
2022-08-14T16:51:36.249Z,32.30
2022-08-14T16:54:20.961Z,32.30
2022-08-14T16:57:16.022Z,32.20
2022-08-14T16:59:52.180Z,32.10
2022-08-14T17:02:37.105Z,32.00
2022-08-14T17:05:18.748Z,32.00
2022-08-14T17:08:32.053Z,31.90
2022-08-14T17:11:09.769Z,31.90
2022-08-14T17:13:48.014Z,31.80
2022-08-14T17:16:29.601Z,31.70
2022-08-14T17:19:03.520Z,31.60
2022-08-14T17:21:37.424Z,31.50
2022-08-14T17:24:56.084Z,31.50
2022-08-14T17:27:04.216Z,31.40
2022-08-14T17:29:52.017Z,31.40
2022-08-14T17:32:30.067Z,31.30
2022-08-14T17:35:16.768Z,31.20
2022-08-14T17:40:38.324Z,31.00
2022-08-14T17:43:08.739Z,30.90
2022-08-14T17:45:46.705Z,30.70
2022-08-14T17:49:14.328Z,30.60
2022-08-14T17:51:24.249Z,30.40
2022-08-14T17:54:03.064Z,30.20
2022-08-14T17:56:36.170Z,30.10
2022-08-14T17:59:07.754Z,29.90
2022-08-14T18:01:40.653Z,29.80
2022-08-14T18:04:24.880Z,29.60
2022-08-14T18:07:09.947Z,29.40
2022-08-14T18:09:58.636Z,29.30
2022-08-14T18:12:36.918Z,29.10
2022-08-14T18:15:16.147Z,28.90
2022-08-14T18:17:52.599Z,28.70
2022-08-14T18:21:42.570Z,28.50
2022-08-14T18:23:13.414Z,28.30
2022-08-14T18:25:54.425Z,28.20
2022-08-14T18:28:46.541Z,28.00
2022-08-14T18:31:42.303Z,27.90
2022-08-14T18:34:31.932Z,27.60
2022-08-14T18:37:16.638Z,27.50
2022-08-14T18:40:02.881Z,27.30
2022-08-14T18:42:45.467Z,27.10
2022-08-14T18:45:18.710Z,26.90
2022-08-14T18:48:14.187Z,26.70
2022-08-14T18:50:52.687Z,26.60
2022-08-14T18:53:24.722Z,26.40
2022-08-14T18:56:01.903Z,26.30
2022-08-14T18:58:58.625Z,26.10
2022-08-14T19:01:30.599Z,26.00
2022-08-14T19:04:01.256Z,25.80
2022-08-14T19:06:41.148Z,25.80
2022-08-14T19:09:11.257Z,25.70
2022-08-14T19:11:50.407Z,25.60
2022-08-14T19:14:51.071Z,25.50
2022-08-14T19:18:10.960Z,25.40
2022-08-14T19:20:49.061Z,25.30
2022-08-14T19:23:42.942Z,25.20
2022-08-14T19:26:36.341Z,25.10
2022-08-14T19:29:36.027Z,25.00
2022-08-14T19:32:36.711Z,25.00
2022-08-14T19:35:55.669Z,24.90
2022-08-14T19:38:53.457Z,24.80
2022-08-14T19:41:38.593Z,24.70
2022-08-14T19:44:13.991Z,24.60
2022-08-14T19:47:01.825Z,24.50
2022-08-14T19:50:09.075Z,24.30
2022-08-14T19:52:29.742Z,24.20
2022-08-14T19:55:00.223Z,24.10
2022-08-14T19:57:32.150Z,24.00
2022-08-14T20:00:28.728Z,23.90
2022-08-14T20:03:10.672Z,23.80
2022-08-14T20:05:45.937Z,23.70
2022-08-14T20:09:05.884Z,23.70
2022-08-14T20:11:20.895Z,23.60
2022-08-14T20:14:04.263Z,23.60
2022-08-14T20:16:44.273Z,23.60
2022-08-14T20:19:18.432Z,23.50
2022-08-14T20:22:04.334Z,23.50
2022-08-14T20:24:45.093Z,23.40
2022-08-14T20:27:33.732Z,23.40
2022-08-14T20:33:02.405Z,23.40
2022-08-14T20:35:35.686Z,23.30
2022-08-14T20:38:29.307Z,23.30
2022-08-14T20:41:05.833Z,23.20
2022-08-14T20:43:55.669Z,23.10
2022-08-14T20:46:29.437Z,23.10
2022-08-14T20:49:01.908Z,23.00
2022-08-14T20:51:43.320Z,23.00
2022-08-14T20:54:33.963Z,22.90
2022-08-14T20:57:14.173Z,22.80
2022-08-14T20:59:46.551Z,22.80
2022-08-14T21:02:46.159Z,22.70
2022-08-14T21:05:33.353Z,22.70
2022-08-14T21:08:05.635Z,22.70
2022-08-14T21:10:44.298Z,22.70
2022-08-14T21:14:08.579Z,22.60
2022-08-14T21:16:34.461Z,22.60
2022-08-14T21:19:00.049Z,22.60
2022-08-14T21:21:41.537Z,22.60
2022-08-14T21:24:38.839Z,22.60
2022-08-14T21:27:12.371Z,22.60
2022-08-14T21:29:54.288Z,22.60
2022-08-14T21:32:34.578Z,22.60
2022-08-14T21:35:08.598Z,22.60
2022-08-14T21:37:43.930Z,22.60
2022-08-14T21:40:33.217Z,22.70
2022-08-14T21:43:01.886Z,22.90
2022-08-14T21:45:35.314Z,23.00
2022-08-14T21:48:10.706Z,23.10
2022-08-14T21:51:00.984Z,23.10
2022-08-14T21:53:34.699Z,23.20
2022-08-14T21:56:05.593Z,23.30
2022-08-14T21:58:52.393Z,23.30
2022-08-14T22:01:24.372Z,23.40
2022-08-14T22:03:56.812Z,23.50
2022-08-14T22:06:29.488Z,23.50
2022-08-14T22:08:59.023Z,23.60
2022-08-14T22:11:30.201Z,23.60
2022-08-14T22:14:25.284Z,23.60
2022-08-14T22:17:02.008Z,23.60
2022-08-14T22:19:43.343Z,23.60
2022-08-14T22:22:24.075Z,23.60
2022-08-14T22:25:00.294Z,23.60
2022-08-14T22:27:32.460Z,23.60
2022-08-14T22:30:03.045Z,23.60
2022-08-14T22:32:55.877Z,23.60
2022-08-14T22:35:23.244Z,23.60
2022-08-14T22:38:34.660Z,23.60
2022-08-14T22:41:07.550Z,23.60
2022-08-14T22:43:35.248Z,23.50
2022-08-14T22:46:06.345Z,23.50
2022-08-14T22:48:45.170Z,23.50
2022-08-14T22:51:14.861Z,23.50
2022-08-14T22:53:46.177Z,23.50
2022-08-14T22:56:21.879Z,23.60
2022-08-14T22:58:53.739Z,23.50
2022-08-14T23:01:57.304Z,23.60
2022-08-14T23:04:34.740Z,23.50
2022-08-14T23:07:21.611Z,23.50
2022-08-14T23:09:56.914Z,23.50
2022-08-14T23:12:29.494Z,23.50
2022-08-14T23:15:00.340Z,23.50
2022-08-14T23:17:38.970Z,23.50
2022-08-14T23:20:18.757Z,23.40
2022-08-14T23:22:51.727Z,23.40
2022-08-14T23:25:45.820Z,23.40
2022-08-14T23:28:34.675Z,23.40
2022-08-14T23:31:12.939Z,23.40
2022-08-14T23:33:51.772Z,23.40
2022-08-14T23:36:31.799Z,23.40
2022-08-14T23:39:10.484Z,23.40
2022-08-14T23:41:52.649Z,23.40
2022-08-14T23:44:24.770Z,23.40
2022-08-14T23:47:03.544Z,23.40
2022-08-14T23:49:56.700Z,23.40
2022-08-14T23:53:06.314Z,23.40
2022-08-14T23:55:11.713Z,23.40
2022-08-14T23:57:44.251Z,23.40
